ADDS METAR Data INFO
IDs: Format: Raw Decoded Include TAF

Data at: 1810 UTC 18 Feb 2018

KSRQ 181753Z 26009KT 10SM CLR 26/15 A3020 RMK AO2 SLP225 T02610150 10267 20150 58012
KSRQ 181653Z 24006KT 10SM CLR 26/16 A3022 RMK AO2 SLP233 T02610161
KSRQ 181553Z 00000KT 10SM CLR 26/16 A3024 RMK AO2 SLP238 T02560156
KSRQ 181453Z 13006KT 10SM CLR 23/16 A3023 RMK AO2 SLP237 T02330161 51013
KSRQ 181353Z 15006KT 10SM CLR 20/17 A3022 RMK AO2 SLP233 T02000167
KSRQ 181253Z 11004KT 10SM CLR 16/16 A3021 RMK AO2 SLP229 T01610156
KSRQ 181153Z 12004KT 6SM BR CLR 14/14 A3020 RMK AO2 SLP224 T01440144 10172 20139 53006
KSRQ 181130Z 11004KT 3SM BR CLR 15/15 A3020 RMK AO2 T01500150
KSRQ 181127Z 09003KT 1 1/4SM BR FEW006 14/14 A3020 RMK AO2 T01440144
KSRQ 181053Z 09003KT 1/4SM FG VV002 15/15 A3019 RMK AO2 SLP222 T01500150
KSRQ 180953Z AUTO 03003KT 1/4SM FG VV002 16/16 A3018 RMK AO2 SLP219 T01610161
KSRQ 180853Z AUTO 11004KT 1/4SM FG VV002 16/16 A3018 RMK AO2 SLP218 T01610161 55002
KSRQ 180821Z AUTO 11005KT 1/2SM FG VV002 14/14 A3018 RMK AO2 T01390139
KSRQ 180814Z AUTO 06003KT 1 1/4SM BR CLR 16/16 A3018 RMK AO2 T01560156
KSRQ 180810Z AUTO 04004KT 4SM BR CLR 17/17 A3017 RMK AO2 T01670167
KSRQ 180800Z AUTO 02003KT 2SM BR CLR 17/16 A3017 RMK AO2 T01670161
KSRQ 180753Z AUTO 02003KT 3SM BR CLR 17/17 A3017 RMK AO2 SLP216 T01670167
KSRQ 180746Z AUTO 01003KT 2 1/2SM BR CLR 17/17 A3017 RMK AO2 T01670167
KSRQ 180653Z AUTO 01003KT 7SM CLR 16/16 A3017 RMK AO2 SLP216 T01560156
KSRQ 180640Z AUTO 01003KT 7SM CLR 16/16 A3018 RMK AO2 T01610161
KSRQ 180633Z AUTO 00000KT 2 1/2SM BR CLR 17/17 A3018 RMK AO2 T01670167
KSRQ 180603Z AUTO 00000KT 1/2SM FG CLR 17/17 A3018 RMK AO2 T01720167
KSRQ 180553Z AUTO 00000KT 1 1/2SM BR CLR 17/17 A3018 RMK AO2 SLP220 T01720167 10217 20161 56011
KSRQ 180551Z AUTO 00000KT 1 3/4SM BR CLR 17/17 A3018 RMK AO2
KSRQ 180453Z AUTO 34004KT 10SM CLR 18/17 A3019 RMK AO2 SLP224 T01780172 402500144
KSRQ 180353Z AUTO 00000KT 10SM CLR 17/16 A3020 RMK AO2 SLP227 T01670161
KSRQ 180253Z 35003KT 10SM CLR 18/17 A3022 RMK AO2 SLP231 T01830167 53003
KSRQ 180153Z 00000KT 10SM CLR 19/17 A3021 RMK AO2 SLP228 T01940172
KSRQ 180053Z 00000KT 10SM CLR 21/17 A3021 RMK AO2 SLP229 T02060167
KSRQ 172353Z 26004KT 10SM CLR 21/17 A3021 RMK AO2 SLP227 T02110167 10250 20211 51015
KSRQ 172253Z 26005KT 10SM CLR 23/17 A3020 RMK AO2 SLP225 T02280167
KSRQ 172153Z 25006KT 10SM CLR 23/17 A3018 RMK AO2 SLP220 T02330167
KSRQ 172053Z 24008KT 10SM CLR 24/17 A3016 RMK AO2 SLP212 T02440167 55006
KSRQ 171953Z 21007KT 10SM CLR 24/17 A3015 RMK AO2 SLP208 T02390172
KSRQ 171853Z 24010KT 10SM CLR 24/18 A3016 RMK AO2 SLP214 T02440178
KSRQ 171753Z 23009KT 10SM CLR 24/18 A3018 RMK AO2 SLP218 T02440183 10250 20161 58013
KSRQ 171653Z 26007KT 10SM CLR 24/19 A3020 RMK AO2 SLP225 T02390189
KSRQ 171553Z 24005KT 10SM CLR 23/19 A3021 RMK AO2 SLP230 T02330189
KSRQ 171501Z VRB03KT 10SM SCT010 22/19 A3022 RMK AO2 T02170189
KSRQ 171453Z 20003KT 10SM BKN010 22/19 A3022 RMK AO2 CIG 006V013 SLP231 T02170194 51009
KSRQ 171449Z 22004KT 10SM SCT008 BKN012 22/19 A3022 RMK AO2
KSRQ 171353Z 21003KT 10SM OVC007 20/19 A3021 RMK AO2 SLP228 T02000189
KSRQ 171253Z 14003KT 8SM OVC005 18/18 A3019 RMK AO2 SLP222 T01830183
KSRQ 171153Z 13004KT 3SM BR BKN006 16/16 A3017 RMK AO2 SLP216 T01610161 10178 20144 53006
KSRQ 171130Z 15005KT 3SM BR FEW004 16/16 A3017 RMK AO2 T01610161
KSRQ 171126Z 15006KT 1 1/4SM BR SCT004 16/16 A3016 RMK AO2 T01560156
KSRQ 171053Z 13003KT 1/4SM FG VV004 16/16 A3016 RMK AO2 SLP212 T01610161
KSRQ 171013Z AUTO 07003KT 1/4SM FG VV002 16/16 A3016 RMK AO2 T01610161
KSRQ 171003Z AUTO 00000KT 1 1/2SM BR BKN003 17/17 A3015 RMK AO2 T01720172
KSRQ 170957Z AUTO 00000KT 3SM BR BKN003 17/17 A3015 RMK AO2 T01720172
KSRQ 170953Z AUTO 01003KT 1SM BR VV003 17/17 A3015 RMK AO2 SLP210 T01670167
KSRQ 170944Z AUTO 11003KT 1 3/4SM BR SCT003 16/16 A3015 RMK AO2 T01610161
KSRQ 170936Z AUTO 14005KT 5SM BR SCT002 16/16 A3015 RMK AO2 T01610161
KSRQ 170927Z AUTO 14005KT 5SM BR BKN002 17/17 A3014 RMK AO2 T01670167
KSRQ 170920Z AUTO 14005KT 2SM BR BKN002 17/17 A3014 RMK AO2 T01670167
KSRQ 170853Z AUTO 16006KT 1/4SM FG VV002 18/18 A3014 RMK AO2 SLP206 T01780178 56009
KSRQ 170815Z AUTO 00000KT 1/4SM FG VV001 17/17 A3014 RMK AO2 T01720172
KSRQ 170808Z AUTO 36005KT 1SM BR VV001 18/18 A3014 RMK AO2 T01780178
KSRQ 170805Z AUTO 36006KT 2SM BR SCT002 17/17 A3014 RMK AO2 T01720172
KSRQ 170753Z AUTO 36004KT 5SM BR CLR 16/16 A3014 RMK AO2 SLP206 T01610161
KSRQ 170732Z AUTO 36003KT 7SM CLR 17/17 A3015 RMK AO2 T01670167
KSRQ 170725Z AUTO 01003KT 1 1/2SM BR FEW003 16/16 A3015 RMK AO2 T01610161
KSRQ 170721Z AUTO 01003KT 3/4SM BR VV003 16/16 A3015 RMK AO2 T01610161
KSRQ 170712Z AUTO 00000KT 1 1/4SM BR BKN003 17/17 A3015 RMK AO2 T01670167
KSRQ 170653Z AUTO 00000KT 1/2SM FG VV003 16/16 A3016 RMK AO2 SLP211 T01610161
KSRQ 170649Z AUTO 00000KT 1 1/4SM BR BKN003 17/17 A3016 RMK AO2 VIS 1/2V3
KSRQ 170642Z AUTO 00000KT 2 1/2SM BR FEW003 17/17 A3016 RMK AO2 T01720172
KSRQ 170637Z AUTO 00000KT 4SM BR CLR 18/18 A3016 RMK AO2 T01780178
KSRQ 170629Z AUTO 00000KT 2SM BR CLR 17/17 A3017 RMK AO2 VIS 1V4 T01670167
KSRQ 170623Z AUTO 00000KT 1/2SM FG CLR 17/17 A3017 RMK AO2 T01670167